Jonni Ritscher — A8JT7 — position and weather

sailwx.info

Track history (hours):
 
Tides and Currents Weather Stations Pressure Air Temp Water Temp Dewpoint Dewpoint Depression Visibility Wind Speed Wind Dir Waves Ship Positions

Jonni Ritscher

Last reported at 2015-Mar-24 18:33 UTC. Time now 2015-Mar-29 01:11 UTC.
Position N 49°39' W 000°35'.

Length 178 m; draft 10.9 m.

Type: Ship. MMSI: 636091136.

Date/timePositionNaut miles runAvg speedWind from/ knotsBaromVisibWave heightAir tempDewpointWater temp
2015-Mar-24 18:33N 49°39' W 000°35'1818.3
2015-Mar-24 17:33N 49°32' W 000°09'1313.2
2015-Mar-24 16:34N 49°27' E 000°10'0 0.0
2015-Mar-24 15:31N 49°27' E 000°10'0 0.0
2015-Mar-24 14:31N 49°27' E 000°10'0 0.0
2015-Mar-24 13:31N 49°27' E 000°10'0 0.0
2015-Mar-24 12:33N 49°27' E 000°10'0 0.0
2015-Mar-24 11:33N 49°27' E 000°10'0 0.0
2015-Mar-24 10:32N 49°28' E 000°10'0 0.0
2015-Mar-24 09:32N 49°27' E 000°10'0 0.0
2015-Mar-24 08:31N 49°28' E 000°10'0 0.0
2015-Mar-24 07:28N 49°27' E 000°10'0 0.0
2015-Mar-24 06:31N 49°28' E 000°10'0 0.0
2015-Mar-24 05:33N 49°27' E 000°10'0 0.0
2015-Mar-24 04:33N 49°28' E 000°10'0 0.0
2015-Mar-24 03:32N 49°28' E 000°10'0 0.0
2015-Mar-24 02:32N 49°28' E 000°10'0 0.0
2015-Mar-24 01:31N 49°28' E 000°10'0 0.0
2015-Mar-24 00:31N 49°28' E 000°10'0 0.0
2015-Mar-23 23:31N 49°28' E 000°10'0 0.0
2015-Mar-23 22:33N 49°28' E 000°10'0 0.0
2015-Mar-23 21:33N 49°27' E 000°10'0 0.0
2015-Mar-23 20:32N 49°28' E 000°10'0 0.0
2015-Mar-23 19:32N 49°27' E 000°10'0 0.0
2015-Mar-23 18:31N 49°27' E 000°10'0 0.0
2015-Mar-23 17:31N 49°27' E 000°10'0 0.0
2015-Mar-23 16:31N 49°27' E 000°10'3 3.3
2015-Mar-23 15:33N 49°29' E 000°05'1211.6
2015-Mar-23 14:33N 49°33' W 000°12'2 2.5
2015-Mar-23 13:34N 49°35' W 000°13'0 0.0
2015-Mar-23 12:33N 49°35' W 000°13'0 0.0
2015-Mar-23 11:33N 49°35' W 000°13'0 0.0
2015-Mar-23 10:33N 49°35' W 000°13'0 0.0
2015-Mar-23 09:33N 49°35' W 000°13'0 0.1
2015-Mar-23 08:34N 49°35' W 000°13'7 7.0
2015-Mar-23 07:34N 49°40' W 000°20'5213.0
2015-Mar-23 03:32N 50°30' E 000°05'1312.5
2015-Mar-23 02:30N 50°34' E 000°24'1111.4
2015-Mar-23 01:33N 50°38' E 000°40'1110.6
2015-Mar-23 00:33N 50°43' E 000°54'1010.3
2015-Mar-22 23:33N 50°49' E 001°08'1111.2
2015-Mar-22 22:33N 50°57' E 001°21'1514.9
2015-Mar-22 21:33N 51°07' E 001°37'1514.9
2015-Mar-22 20:33N 51°19' E 001°51'1313.5
2015-Mar-22 19:34N 51°30' E 002°04'1212.1
2015-Mar-22 18:33N 51°39' E 002°17'1610.9
2015-Mar-22 17:06N 51°52' E 002°33'610.2
2015-Mar-22 16:31N 51°56' E 002°39'1310.0
2015-Mar-22 15:15N 52°06' E 002°52'812.0
2015-Mar-22 14:33N 52°13' E 003°00'1412.9
2015-Mar-22 13:30N 52°24' E 003°14'1414.3
2015-Mar-22 12:30N 52°35' E 003°27'4715.0
2015-Mar-22 09:22N 53°09' E 004°21'1315.8
2015-Mar-22 08:33N 53°20' E 004°32'1414.6
2015-Mar-22 07:34N 53°31' E 004°48'1616.4
2015-Mar-22 06:34N 53°37' E 005°14'1615.6
2015-Mar-22 05:34N 53°42' E 005°39'1717.1
2015-Mar-22 04:33N 53°48' E 006°06'3717.7
2015-Mar-22 02:27N 53°56' E 007°08'1517.1
2015-Mar-22 01:33N 53°59' E 007°33'1313.4
2015-Mar-22 00:33N 53°52' E 007°53'1414.2
2015-Mar-21 23:33N 53°45' E 008°13'1413.9
2015-Mar-21 22:33N 53°35' E 008°31'0 0.3
2015-Mar-21 21:22N 53°35' E 008°32'0 0.0
2015-Mar-21 20:31N 53°35' E 008°32'0 0.0
2015-Mar-21 19:30N 53°35' E 008°32'0 0.0
2015-Mar-21 18:33N 53°35' E 008°32'0 0.0
2015-Mar-21 17:32N 53°35' E 008°32'0 0.0
2015-Mar-21 16:32N 53°35' E 008°32'0 0.0
2015-Mar-21 15:32N 53°35' E 008°32'0 0.0
2015-Mar-21 14:31N 53°35' E 008°32'0 0.0
2015-Mar-21 13:25N 53°35' E 008°32'0 0.0
2015-Mar-21 12:27N 53°35' E 008°32'0 0.0
2015-Mar-21 11:33N 53°35' E 008°32'0 0.0
2015-Mar-21 10:32N 53°35' E 008°32'0 0.0
2015-Mar-21 09:33N 53°35' E 008°32'8 8.3
2015-Mar-21 08:33N 53°41' E 008°21'1818.1
2015-Mar-21 07:33N 53°51' E 007°56'1414.5
2015-Mar-21 06:33N 53°54' E 007°32'1413.6
2015-Mar-21 05:33N 53°51' E 007°09'3316.3
2015-Mar-21 03:33N 53°44' E 006°15'1111.5
2015-Mar-21 02:33N 53°40' E 005°57'8 8.5
2015-Mar-21 01:33N 53°38' E 005°43'9 8.5
2015-Mar-21 00:34N 53°35' E 005°30'9 8.7
2015-Mar-20 23:33N 53°32' E 005°16'9 9.3
2015-Mar-20 22:33N 53°29' E 005°01'10 9.5
2015-Mar-20 21:33N 53°25' E 004°47'9 9.0
2015-Mar-20 20:33N 53°17' E 004°39'1310.1
2015-Mar-20 19:18N 53°06' E 004°28'910.1
2015-Mar-20 18:23N 52°58' E 004°21'3210.7
2015-Mar-20 15:26N 52°31' E 003°55'1011.6
2015-Mar-20 14:33N 52°21' E 003°52'1211.5
2015-Mar-20 13:33N 52°09' E 003°55'1010.2
2015-Mar-20 12:33N 51°60' E 004°02'1211.9
2015-Mar-20 11:33N 51°54' E 004°18'4 3.7
2015-Mar-20 10:33N 51°53' E 004°24'0 0.0
2015-Mar-20 09:32N 51°53' E 004°24'0 0.0
2015-Mar-20 08:31N 51°53' E 004°24'0 0.0
2015-Mar-20 07:31N 51°53' E 004°24'0 0.0
2015-Mar-20 06:28N 51°53' E 004°24'0 0.0
2015-Mar-20 05:30N 51°53' E 004°24'0 0.0
2015-Mar-20 04:33N 51°53' E 004°24'0 0.0
2015-Mar-20 03:32N 51°53' E 004°24'0 0.0
2015-Mar-20 02:32N 51°53' E 004°24'0 0.0
2015-Mar-20 01:31N 51°53' E 004°24'0 0.0
2015-Mar-20 00:31N 51°53' E 004°24'0 0.0
2015-Mar-19 23:33N 51°53' E 004°24'0 0.0
2015-Mar-19 22:33N 51°53' E 004°24'0 0.0
2015-Mar-19 21:33N 51°53' E 004°24'0 0.0
2015-Mar-19 20:32N 51°53' E 004°24'0 0.0
2015-Mar-19 19:32N 51°53' E 004°24'0 0.0
2015-Mar-19 18:31N 51°53' E 004°24'0 0.0
2015-Mar-19 17:31N 51°53' E 004°24'0 0.0
2015-Mar-19 16:33N 51°53' E 004°24'0 0.2
2015-Mar-19 15:33N 51°53' E 004°24'5 5.4
2015-Mar-19 14:33N 51°54' E 004°16'7 6.7
2015-Mar-19 13:33N 51°58' E 004°07'7 6.9
2015-Mar-19 12:34N 52°00' E 003°57'8 7.9
2015-Mar-19 11:33N 51°59' E 003°44'7 5.8
2015-Mar-19 10:25N 51°55' E 003°35'0 0.0
2015-Mar-19 09:22N 51°55' E 003°35'0 0.0
2015-Mar-19 07:24N 51°55' E 003°35'0 0.0
2015-Mar-19 06:26N 51°55' E 003°35'0 0.0
2015-Mar-19 05:26N 51°55' E 003°35'0 0.0
2015-Mar-19 04:31N 51°55' E 003°35'0 0.1
2015-Mar-19 03:28N 51°55' E 003°35'0 0.0
2015-Mar-19 02:28N 51°55' E 003°35'0 0.0
2015-Mar-19 01:21N 51°55' E 003°35'0 0.0
2015-Mar-19 00:15N 51°55' E 003°35'0 0.2
2015-Mar-18 23:23N 51°55' E 003°35'2 2.3
2015-Mar-18 22:31N 51°54' E 003°33'1513.9
2015-Mar-18 21:28N 51°44' E 003°15'1011.1
2015-Mar-18 20:32N 51°34' E 003°09'1010.7
2015-Mar-18 19:33N 51°24' E 003°05'1717.3
2015-Mar-18 18:33N 51°26' E 003°33'1514.6
2015-Mar-18 17:34N 51°22' E 003°55'1110.9
2015-Mar-18 16:33N 51°23' E 004°13'6 5.2
2015-Mar-18 15:28N 51°17' E 004°16'0 0.1
2015-Mar-18 14:33N 51°17' E 004°16'0 0.0
2015-Mar-18 13:26N 51°17' E 004°16'0 0.0
2015-Mar-18 12:28N 51°17' E 004°16'0 0.0
2015-Mar-18 11:31N 51°17' E 004°16'0 0.0
2015-Mar-18 10:32N 51°17' E 004°16'0 0.0
2015-Mar-18 09:33N 51°17' E 004°16'0 0.0
2015-Mar-18 08:32N 51°17' E 004°16'0 0.0
2015-Mar-18 07:29N 51°17' E 004°16'0 0.0
2015-Mar-18 06:32N 51°17' E 004°16'0 0.0
2015-Mar-18 05:28N 51°17' E 004°16'0 0.0
2015-Mar-18 04:31N 51°17' E 004°16'0 0.0
2015-Mar-18 03:33N 51°17' E 004°16'0 0.0
2015-Mar-18 02:21N 51°17' E 004°16'0 0.0
2015-Mar-18 01:32N 51°17' E 004°16'0 0.0
2015-Mar-18 00:29N 51°17' E 004°16'0 0.0
2015-Mar-17 23:29N 51°17' E 004°16'0 0.0
2015-Mar-17 22:31N 51°17' E 004°16'0 0.0
2015-Mar-17 21:33N 51°17' E 004°16'4 4.3
2015-Mar-17 20:33N 51°22' E 004°14'8 7.7
2015-Mar-17 19:34N 51°24' E 004°02'9 9.5
2015-Mar-17 18:33N 51°21' E 003°48'1010.3
2015-Mar-17 17:34N 51°25' E 003°33'1615.7
2015-Mar-17 16:34N 51°24' E 003°08'1515.3
2015-Mar-17 15:33N 51°22' E 002°43'5 3.5
2015-Mar-17 14:07N 51°24' E 002°37'0 0.1
2015-Mar-17 13:28N 51°24' E 002°37'0 0.0
2015-Mar-17 12:33N 51°24' E 002°37'0 0.0
2015-Mar-17 11:30N 51°24' E 002°37'0 0.0
2015-Mar-17 10:26N 51°24' E 002°37'1 0.9
2015-Mar-17 09:27N 51°24' E 002°35'1415.8
2015-Mar-17 08:34N 51°17' E 002°16'1818.1
2015-Mar-17 07:33N 51°08' E 001°51'1919.2
2015-Mar-17 06:33N 50°54' E 001°29'1815.2
2015-Mar-17 05:22N 50°38' E 001°15'1314.7
2015-Mar-17 04:30N 50°31' E 000°59'1615.3
2015-Mar-17 03:27N 50°25' E 000°36'2814.7
2015-Mar-17 01:33N 50°18' W 000°07'  
Track history (hours):
 
Tides and Currents Weather Stations Pressure Air Temp Water Temp Dewpoint Dewpoint Depression Visibility Wind Speed Wind Dir Waves Ship Positions

Jonni Ritscher

Last reported at 2015-Mar-24 18:33 UTC. Time now 2015-Mar-29 01:11 UTC.
Position N 49°39' W 000°35'.

Length 178 m; draft 10.9 m.

Type: Ship. MMSI: 636091136.

Date/timePositionNaut miles runAvg speedWind from/ knotsBaromVisibWave heightAir tempDewpointWater temp
2015-Mar-24 18:33N 49°39' W 000°35'1818.3
2015-Mar-24 17:33N 49°32' W 000°09'1313.2
2015-Mar-24 16:34N 49°27' E 000°10'0 0.0
2015-Mar-24 15:31N 49°27' E 000°10'0 0.0
2015-Mar-24 14:31N 49°27' E 000°10'0 0.0
2015-Mar-24 13:31N 49°27' E 000°10'0 0.0
2015-Mar-24 12:33N 49°27' E 000°10'0 0.0
2015-Mar-24 11:33N 49°27' E 000°10'0 0.0
2015-Mar-24 10:32N 49°28' E 000°10'0 0.0
2015-Mar-24 09:32N 49°27' E 000°10'0 0.0
2015-Mar-24 08:31N 49°28' E 000°10'0 0.0
2015-Mar-24 07:28N 49°27' E 000°10'0 0.0
2015-Mar-24 06:31N 49°28' E 000°10'0 0.0
2015-Mar-24 05:33N 49°27' E 000°10'0 0.0
2015-Mar-24 04:33N 49°28' E 000°10'0 0.0
2015-Mar-24 03:32N 49°28' E 000°10'0 0.0
2015-Mar-24 02:32N 49°28' E 000°10'0 0.0
2015-Mar-24 01:31N 49°28' E 000°10'0 0.0
2015-Mar-24 00:31N 49°28' E 000°10'0 0.0
2015-Mar-23 23:31N 49°28' E 000°10'0 0.0
2015-Mar-23 22:33N 49°28' E 000°10'0 0.0
2015-Mar-23 21:33N 49°27' E 000°10'0 0.0
2015-Mar-23 20:32N 49°28' E 000°10'0 0.0
2015-Mar-23 19:32N 49°27' E 000°10'0 0.0
2015-Mar-23 18:31N 49°27' E 000°10'0 0.0
2015-Mar-23 17:31N 49°27' E 000°10'0 0.0
2015-Mar-23 16:31N 49°27' E 000°10'3 3.3
2015-Mar-23 15:33N 49°29' E 000°05'1211.6
2015-Mar-23 14:33N 49°33' W 000°12'2 2.5
2015-Mar-23 13:34N 49°35' W 000°13'0 0.0
2015-Mar-23 12:33N 49°35' W 000°13'0 0.0
2015-Mar-23 11:33N 49°35' W 000°13'0 0.0
2015-Mar-23 10:33N 49°35' W 000°13'0 0.0
2015-Mar-23 09:33N 49°35' W 000°13'0 0.1
2015-Mar-23 08:34N 49°35' W 000°13'7 7.0
2015-Mar-23 07:34N 49°40' W 000°20'5213.0
2015-Mar-23 03:32N 50°30' E 000°05'1312.5
2015-Mar-23 02:30N 50°34' E 000°24'1111.4
2015-Mar-23 01:33N 50°38' E 000°40'1110.6
2015-Mar-23 00:33N 50°43' E 000°54'1010.3
2015-Mar-22 23:33N 50°49' E 001°08'1111.2
2015-Mar-22 22:33N 50°57' E 001°21'1514.9
2015-Mar-22 21:33N 51°07' E 001°37'1514.9
2015-Mar-22 20:33N 51°19' E 001°51'1313.5
2015-Mar-22 19:34N 51°30' E 002°04'1212.1
2015-Mar-22 18:33N 51°39' E 002°17'1610.9
2015-Mar-22 17:06N 51°52' E 002°33'610.2
2015-Mar-22 16:31N 51°56' E 002°39'1310.0
2015-Mar-22 15:15N 52°06' E 002°52'812.0
2015-Mar-22 14:33N 52°13' E 003°00'1412.9
2015-Mar-22 13:30N 52°24' E 003°14'1414.3
2015-Mar-22 12:30N 52°35' E 003°27'4715.0
2015-Mar-22 09:22N 53°09' E 004°21'1315.8
2015-Mar-22 08:33N 53°20' E 004°32'1414.6
2015-Mar-22 07:34N 53°31' E 004°48'1616.4
2015-Mar-22 06:34N 53°37' E 005°14'1615.6
2015-Mar-22 05:34N 53°42' E 005°39'1717.1
2015-Mar-22 04:33N 53°48' E 006°06'3717.7
2015-Mar-22 02:27N 53°56' E 007°08'1517.1
2015-Mar-22 01:33N 53°59' E 007°33'1313.4
2015-Mar-22 00:33N 53°52' E 007°53'1414.2
2015-Mar-21 23:33N 53°45' E 008°13'1413.9
2015-Mar-21 22:33N 53°35' E 008°31'0 0.3
2015-Mar-21 21:22N 53°35' E 008°32'0 0.0
2015-Mar-21 20:31N 53°35' E 008°32'0 0.0
2015-Mar-21 19:30N 53°35' E 008°32'0 0.0
2015-Mar-21 18:33N 53°35' E 008°32'0 0.0
2015-Mar-21 17:32N 53°35' E 008°32'0 0.0
2015-Mar-21 16:32N 53°35' E 008°32'0 0.0
2015-Mar-21 15:32N 53°35' E 008°32'0 0.0
2015-Mar-21 14:31N 53°35' E 008°32'0 0.0
2015-Mar-21 13:25N 53°35' E 008°32'0 0.0
2015-Mar-21 12:27N 53°35' E 008°32'0 0.0
2015-Mar-21 11:33N 53°35' E 008°32'0 0.0
2015-Mar-21 10:32N 53°35' E 008°32'0 0.0
2015-Mar-21 09:33N 53°35' E 008°32'8 8.3
2015-Mar-21 08:33N 53°41' E 008°21'1818.1
2015-Mar-21 07:33N 53°51' E 007°56'1414.5
2015-Mar-21 06:33N 53°54' E 007°32'1413.6
2015-Mar-21 05:33N 53°51' E 007°09'3316.3
2015-Mar-21 03:33N 53°44' E 006°15'1111.5
2015-Mar-21 02:33N 53°40' E 005°57'8 8.5
2015-Mar-21 01:33N 53°38' E 005°43'9 8.5
2015-Mar-21 00:34N 53°35' E 005°30'9 8.7
2015-Mar-20 23:33N 53°32' E 005°16'9 9.3
2015-Mar-20 22:33N 53°29' E 005°01'10 9.5
2015-Mar-20 21:33N 53°25' E 004°47'9 9.0
2015-Mar-20 20:33N 53°17' E 004°39'1310.1
2015-Mar-20 19:18N 53°06' E 004°28'910.1
2015-Mar-20 18:23N 52°58' E 004°21'3210.7
2015-Mar-20 15:26N 52°31' E 003°55'1011.6
2015-Mar-20 14:33N 52°21' E 003°52'1211.5
2015-Mar-20 13:33N 52°09' E 003°55'1010.2
2015-Mar-20 12:33N 51°60' E 004°02'1211.9
2015-Mar-20 11:33N 51°54' E 004°18'4 3.7
2015-Mar-20 10:33N 51°53' E 004°24'0 0.0
2015-Mar-20 09:32N 51°53' E 004°24'0 0.0
2015-Mar-20 08:31N 51°53' E 004°24'0 0.0
2015-Mar-20 07:31N 51°53' E 004°24'0 0.0
2015-Mar-20 06:28N 51°53' E 004°24'0 0.0
2015-Mar-20 05:30N 51°53' E 004°24'0 0.0
2015-Mar-20 04:33N 51°53' E 004°24'0 0.0
2015-Mar-20 03:32N 51°53' E 004°24'0 0.0
2015-Mar-20 02:32N 51°53' E 004°24'0 0.0
2015-Mar-20 01:31N 51°53' E 004°24'0 0.0
2015-Mar-20 00:31N 51°53' E 004°24'0 0.0
2015-Mar-19 23:33N 51°53' E 004°24'0 0.0
2015-Mar-19 22:33N 51°53' E 004°24'0 0.0
2015-Mar-19 21:33N 51°53' E 004°24'0 0.0
2015-Mar-19 20:32N 51°53' E 004°24'0 0.0
2015-Mar-19 19:32N 51°53' E 004°24'0 0.0
2015-Mar-19 18:31N 51°53' E 004°24'0 0.0
2015-Mar-19 17:31N 51°53' E 004°24'0 0.0
2015-Mar-19 16:33N 51°53' E 004°24'0 0.2
2015-Mar-19 15:33N 51°53' E 004°24'5 5.4
2015-Mar-19 14:33N 51°54' E 004°16'7 6.7
2015-Mar-19 13:33N 51°58' E 004°07'7 6.9
2015-Mar-19 12:34N 52°00' E 003°57'8 7.9
2015-Mar-19 11:33N 51°59' E 003°44'7 5.8
2015-Mar-19 10:25N 51°55' E 003°35'0 0.0
2015-Mar-19 09:22N 51°55' E 003°35'0 0.0
2015-Mar-19 07:24N 51°55' E 003°35'0 0.0
2015-Mar-19 06:26N 51°55' E 003°35'0 0.0
2015-Mar-19 05:26N 51°55' E 003°35'0 0.0
2015-Mar-19 04:31N 51°55' E 003°35'0 0.1
2015-Mar-19 03:28N 51°55' E 003°35'0 0.0
2015-Mar-19 02:28N 51°55' E 003°35'0 0.0
2015-Mar-19 01:21N 51°55' E 003°35'0 0.0
2015-Mar-19 00:15N 51°55' E 003°35'0 0.2
2015-Mar-18 23:23N 51°55' E 003°35'2 2.3
2015-Mar-18 22:31N 51°54' E 003°33'1513.9
2015-Mar-18 21:28N 51°44' E 003°15'1011.1
2015-Mar-18 20:32N 51°34' E 003°09'1010.7
2015-Mar-18 19:33N 51°24' E 003°05'1717.3
2015-Mar-18 18:33N 51°26' E 003°33'1514.6
2015-Mar-18 17:34N 51°22' E 003°55'1110.9
2015-Mar-18 16:33N 51°23' E 004°13'6 5.2
2015-Mar-18 15:28N 51°17' E 004°16'0 0.1
2015-Mar-18 14:33N 51°17' E 004°16'0 0.0
2015-Mar-18 13:26N 51°17' E 004°16'0 0.0
2015-Mar-18 12:28N 51°17' E 004°16'0 0.0
2015-Mar-18 11:31N 51°17' E 004°16'0 0.0
2015-Mar-18 10:32N 51°17' E 004°16'0 0.0
2015-Mar-18 09:33N 51°17' E 004°16'0 0.0
2015-Mar-18 08:32N 51°17' E 004°16'0 0.0
2015-Mar-18 07:29N 51°17' E 004°16'0 0.0
2015-Mar-18 06:32N 51°17' E 004°16'0 0.0
2015-Mar-18 05:28N 51°17' E 004°16'0 0.0
2015-Mar-18 04:31N 51°17' E 004°16'0 0.0
2015-Mar-18 03:33N 51°17' E 004°16'0 0.0
2015-Mar-18 02:21N 51°17' E 004°16'0 0.0
2015-Mar-18 01:32N 51°17' E 004°16'0 0.0
2015-Mar-18 00:29N 51°17' E 004°16'0 0.0
2015-Mar-17 23:29N 51°17' E 004°16'0 0.0
2015-Mar-17 22:31N 51°17' E 004°16'0 0.0
2015-Mar-17 21:33N 51°17' E 004°16'4 4.3
2015-Mar-17 20:33N 51°22' E 004°14'8 7.7
2015-Mar-17 19:34N 51°24' E 004°02'9 9.5
2015-Mar-17 18:33N 51°21' E 003°48'1010.3
2015-Mar-17 17:34N 51°25' E 003°33'1615.7
2015-Mar-17 16:34N 51°24' E 003°08'1515.3
2015-Mar-17 15:33N 51°22' E 002°43'5 3.5
2015-Mar-17 14:07N 51°24' E 002°37'0 0.1
2015-Mar-17 13:28N 51°24' E 002°37'0 0.0
2015-Mar-17 12:33N 51°24' E 002°37'0 0.0
2015-Mar-17 11:30N 51°24' E 002°37'0 0.0
2015-Mar-17 10:26N 51°24' E 002°37'1 0.9
2015-Mar-17 09:27N 51°24' E 002°35'1415.8
2015-Mar-17 08:34N 51°17' E 002°16'1818.1
2015-Mar-17 07:33N 51°08' E 001°51'1919.2
2015-Mar-17 06:33N 50°54' E 001°29'1815.2
2015-Mar-17 05:22N 50°38' E 001°15'1314.7
2015-Mar-17 04:30N 50°31' E 000°59'1615.3
2015-Mar-17 03:27N 50°25' E 000°36'2814.7
2015-Mar-17 01:33N 50°18' W 000°07'  

Dump ship's entire track history